sensor_id;sensor_type;location;lat;lon;timestamp;pressure;altitude;pressure_sealevel;temperature
58909;BMP280;44690;48.154;17.102;2022-10-31T00:01:30;100178.22;;;11.09
58909;BMP280;44690;48.154;17.102;2022-10-31T00:03:02;100176.78;;;11.08
58909;BMP280;44690;48.154;17.102;2022-10-31T00:04:34;100168.66;;;11.00
58909;BMP280;44690;48.154;17.102;2022-10-31T00:06:06;100182.03;;;10.98
58909;BMP280;44690;48.154;17.102;2022-10-31T00:07:38;100173.72;;;10.96
58909;BMP280;44690;48.154;17.102;2022-10-31T00:09:10;100170.28;;;10.95
58909;BMP280;44690;48.154;17.102;2022-10-31T00:10:43;100173.72;;;10.96
58909;BMP280;44690;48.154;17.102;2022-10-31T00:12:15;100165.72;;;10.98
58909;BMP280;44690;48.154;17.102;2022-10-31T00:13:47;100178.44;;;10.95
58909;BMP280;44690;48.154;17.102;2022-10-31T00:15:19;100175.00;;;10.95
58909;BMP280;44690;48.154;17.102;2022-10-31T00:16:51;100174.09;;;10.92
58909;BMP280;44690;48.154;17.102;2022-10-31T00:18:23;100171.16;;;10.90
58909;BMP280;44690;48.154;17.102;2022-10-31T00:19:55;100178.59;;;10.90
58909;BMP280;44690;48.154;17.102;2022-10-31T00:21:29;100180.44;;;10.87
58909;BMP280;44690;48.154;17.102;2022-10-31T00:23:02;100174.09;;;10.85
58909;BMP280;44690;48.154;17.102;2022-10-31T00:24:34;100177.53;;;10.85
58909;BMP280;44690;48.154;17.102;2022-10-31T00:26:06;100177.16;;;10.81
58909;BMP280;44690;48.154;17.102;2022-10-31T00:27:38;100174.44;;;10.81
58909;BMP280;44690;48.154;17.102;2022-10-31T00:29:10;100179.88;;;10.81
58909;BMP280;44690;48.154;17.102;2022-10-31T00:30:42;100180.44;;;10.80
58909;BMP280;44690;48.154;17.102;2022-10-31T00:32:14;100187.88;;;10.79
58909;BMP280;44690;48.154;17.102;2022-10-31T00:33:46;100174.09;;;10.77
58909;BMP280;44690;48.154;17.102;2022-10-31T00:35:21;100175.72;;;10.80
58909;BMP280;44690;48.154;17.102;2022-10-31T00:36:53;100183.88;;;10.80
58909;BMP280;44690;48.154;17.102;2022-10-31T00:38:25;100179.72;;;10.79
58909;BMP280;44690;48.154;17.102;2022-10-31T00:39:57;100182.22;;;10.77
58909;BMP280;44690;48.154;17.102;2022-10-31T00:41:29;100180.78;;;10.76
58909;BMP280;44690;48.154;17.102;2022-10-31T00:43:01;100180.78;;;10.76
58909;BMP280;44690;48.154;17.102;2022-10-31T00:44:34;100178.06;;;10.76
58909;BMP280;44690;48.154;17.102;2022-10-31T00:46:06;100179.53;;;10.77
58909;BMP280;44690;48.154;17.102;2022-10-31T00:47:37;100183.16;;;10.80
58909;BMP280;44690;48.154;17.102;2022-10-31T00:49:09;100183.88;;;10.80
58909;BMP280;44690;48.154;17.102;2022-10-31T00:50:41;100178.28;;;10.78
58909;BMP280;44690;48.154;17.102;2022-10-31T00:52:13;100176.06;;;10.77
58909;BMP280;44690;48.154;17.102;2022-10-31T00:53:46;100177.34;;;10.76
58909;BMP280;44690;48.154;17.102;2022-10-31T00:55:18;100174.81;;;10.78
58909;BMP280;44690;48.154;17.102;2022-10-31T00:56:50;100167.41;;;10.78
58909;BMP280;44690;48.154;17.102;2022-10-31T00:58:22;100171.38;;;10.77
58909;BMP280;44690;48.154;17.102;2022-10-31T00:59:54;100166.50;;;10.76
58909;BMP280;44690;48.154;17.102;2022-10-31T01:01:26;100162.50;;;10.77
58909;BMP280;44690;48.154;17.102;2022-10-31T01:02:59;100161.06;;;10.76
58909;BMP280;44690;48.154;17.102;2022-10-31T01:04:32;100161.59;;;10.74
58909;BMP280;44690;48.154;17.102;2022-10-31T01:06:06;100164.31;;;10.74
58909;BMP280;44690;48.154;17.102;2022-10-31T01:07:38;100164.50;;;10.76
58909;BMP280;44690;48.154;17.102;2022-10-31T01:09:13;100173.38;;;10.77
58909;BMP280;44690;48.154;17.102;2022-10-31T01:10:45;100171.56;;;10.79
58909;BMP280;44690;48.154;17.102;2022-10-31T01:12:19;100169.22;;;10.76
58909;BMP280;44690;48.154;17.102;2022-10-31T01:13:51;100171.91;;;10.76
58909;BMP280;44690;48.154;17.102;2022-10-31T01:15:23;100178.63;;;10.75
58909;BMP280;44690;48.154;17.102;2022-10-31T01:16:55;100175.19;;;10.74
58909;BMP280;44690;48.154;17.102;2022-10-31T01:18:28;100171.00;;;10.73
58909;BMP280;44690;48.154;17.102;2022-10-31T01:20:00;100176.63;;;10.75
58909;BMP280;44690;48.154;17.102;2022-10-31T01:21:34;100167.59;;;10.73
58909;BMP280;44690;48.154;17.102;2022-10-31T01:23:06;100167.03;;;10.74
58909;BMP280;44690;48.154;17.102;2022-10-31T01:24:37;100167.22;;;10.76
58909;BMP280;44690;48.154;17.102;2022-10-31T01:26:11;100163.22;;;10.77
58909;BMP280;44690;48.154;17.102;2022-10-31T01:27:44;100163.78;;;10.76
58909;BMP280;44690;48.154;17.102;2022-10-31T01:29:16;100159.63;;;10.75
58909;BMP280;44690;48.154;17.102;2022-10-31T01:30:50;100158.19;;;10.74
58909;BMP280;44690;48.154;17.102;2022-10-31T01:32:22;100155.47;;;10.74
58909;BMP280;44690;48.154;17.102;2022-10-31T01:33:55;100159.63;;;10.75
58909;BMP280;44690;48.154;17.102;2022-10-31T01:35:28;100160.34;;;10.75
58909;BMP280;44690;48.154;17.102;2022-10-31T01:36:59;100155.47;;;10.74
58909;BMP280;44690;48.154;17.102;2022-10-31T01:38:31;100151.31;;;10.73
58909;BMP280;44690;48.154;17.102;2022-10-31T01:40:03;100163.06;;;10.75
58909;BMP280;44690;48.154;17.102;2022-10-31T01:41:36;100159.06;;;10.76
58909;BMP280;44690;48.154;17.102;2022-10-31T01:43:14;100163.44;;;10.79
58909;BMP280;44690;48.154;17.102;2022-10-31T01:44:52;100160.00;;;10.79
58909;BMP280;44690;48.154;17.102;2022-10-31T01:46:35;100151.31;;;10.80
58909;BMP280;44690;48.154;17.102;2022-10-31T01:48:11;100153.09;;;10.85
58909;BMP280;44690;48.154;17.102;2022-10-31T01:49:45;100159.44;;;10.88
58909;BMP280;44690;48.154;17.102;2022-10-31T01:51:18;100152.00;;;10.88
58909;BMP280;44690;48.154;17.102;2022-10-31T01:52:52;100162.31;;;10.90
58909;BMP280;44690;48.154;17.102;2022-10-31T01:54:25;100147.31;;;10.89
58909;BMP280;44690;48.154;17.102;2022-10-31T01:55:58;100152.16;;;10.90
58909;BMP280;44690;48.154;17.102;2022-10-31T01:57:31;100148.72;;;10.90
58909;BMP280;44690;48.154;17.102;2022-10-31T01:59:04;100150.56;;;10.87
58909;BMP280;44690;48.154;17.102;2022-10-31T02:00:38;100142.94;;;10.86
58909;BMP280;44690;48.154;17.102;2022-10-31T02:02:10;100135.34;;;10.84
58909;BMP280;44690;48.154;17.102;2022-10-31T02:03:43;100143.50;;;10.84
58909;BMP280;44690;48.154;17.102;2022-10-31T02:05:18;100136.78;;;10.85
58909;BMP280;44690;48.154;17.102;2022-10-31T02:07:02;100136.63;;;10.83
58909;BMP280;44690;48.154;17.102;2022-10-31T02:08:35;100139.34;;;10.83
58909;BMP280;44690;48.154;17.102;2022-10-31T02:10:08;100131.72;;;10.82
58909;BMP280;44690;48.154;17.102;2022-10-31T02:11:42;100139.00;;;10.79
58909;BMP280;44690;48.154;17.102;2022-10-31T02:13:15;100135.72;;;10.81
58909;BMP280;44690;48.154;17.102;2022-10-31T02:14:50;100135.56;;;10.79
58909;BMP280;44690;48.154;17.102;2022-10-31T02:16:23;100139.00;;;10.79
58909;BMP280;44690;48.154;17.102;2022-10-31T02:17:56;100139.00;;;10.79
58909;BMP280;44690;48.154;17.102;2022-10-31T02:20:04;100138.78;;;10.77
58909;BMP280;44690;48.154;17.102;2022-10-31T02:24:45;100140.63;;;10.75
58909;BMP280;44690;48.154;17.102;2022-10-31T02:36:24;100149.84;;;10.72
58909;BMP280;44690;48.154;17.102;2022-10-31T02:38:13;100151.47;;;10.75
58909;BMP280;44690;48.154;17.102;2022-10-31T02:39:58;100149.66;;;10.77
58909;BMP280;44690;48.154;17.102;2022-10-31T02:43:29;100146.94;;;10.85
58909;BMP280;44690;48.154;17.102;2022-10-31T02:45:07;100149.13;;;10.86
58909;BMP280;44690;48.154;17.102;2022-10-31T02:46:53;100156.00;;;10.87
58909;BMP280;44690;48.154;17.102;2022-10-31T02:48:27;100150.03;;;10.89
58909;BMP280;44690;48.154;17.102;2022-10-31T02:50:01;100152.00;;;10.88
58909;BMP280;44690;48.154;17.102;2022-10-31T02:51:36;100152.00;;;10.88
58909;BMP280;44690;48.154;17.102;2022-10-31T02:53:08;100156.16;;;10.89
58909;BMP280;44690;48.154;17.102;2022-10-31T02:54:40;100156.88;;;10.90
58909;BMP280;44690;48.154;17.102;2022-10-31T02:57:44;100146.22;;;10.92
58909;BMP280;44690;48.154;17.102;2022-10-31T02:59:16;100149.09;;;10.94
58909;BMP280;44690;48.154;17.102;2022-10-31T03:09:33;100158.16;;;11.04
58909;BMP280;44690;48.154;17.102;2022-10-31T03:11:08;100165.56;;;11.04
58909;BMP280;44690;48.154;17.102;2022-10-31T03:14:22;100160.88;;;11.04
58909;BMP280;44690;48.154;17.102;2022-10-31T03:16:15;100163.19;;;11.08
58909;BMP280;44690;48.154;17.102;2022-10-31T03:17:50;100155.94;;;11.10
58909;BMP280;44690;48.154;17.102;2022-10-31T03:19:26;100162.28;;;11.13
58909;BMP280;44690;48.154;17.102;2022-10-31T03:21:20;100168.59;;;11.15
58909;BMP280;44690;48.154;17.102;2022-10-31T03:22:53;100159.94;;;11.17
58909;BMP280;44690;48.154;17.102;2022-10-31T03:24:27;100159.38;;;11.18
58909;BMP280;44690;48.154;17.102;2022-10-31T03:26:03;100160.09;;;11.19
58909;BMP280;44690;48.154;17.102;2022-10-31T03:27:36;100159.94;;;11.17
58909;BMP280;44690;48.154;17.102;2022-10-31T03:29:10;100166.06;;;11.17
58909;BMP280;44690;48.154;17.102;2022-10-31T03:30:44;100166.81;;;11.18
58909;BMP280;44690;48.154;17.102;2022-10-31T03:32:18;100171.69;;;11.19
58909;BMP280;44690;48.154;17.102;2022-10-31T03:33:51;100164.44;;;11.22
58909;BMP280;44690;48.154;17.102;2022-10-31T03:35:24;100159.00;;;11.22
58909;BMP280;44690;48.154;17.102;2022-10-31T03:36:59;100167.13;;;11.22
58909;BMP280;44690;48.154;17.102;2022-10-31T03:38:31;100163.16;;;11.23
58909;BMP280;44690;48.154;17.102;2022-10-31T03:40:06;100164.06;;;11.25
58909;BMP280;44690;48.154;17.102;2022-10-31T03:41:41;100168.22;;;11.26
58909;BMP280;44690;48.154;17.102;2022-10-31T03:43:16;100164.06;;;11.25
58909;BMP280;44690;48.154;17.102;2022-10-31T03:44:58;100165.50;;;11.26
58909;BMP280;44690;48.154;17.102;2022-10-31T03:46:33;100163.53;;;11.27
58909;BMP280;44690;48.154;17.102;2022-10-31T03:48:05;100158.63;;;11.25
58909;BMP280;44690;48.154;17.102;2022-10-31T03:49:37;100164.25;;;11.27
58909;BMP280;44690;48.154;17.102;2022-10-31T03:51:28;100163.53;;;11.27
58909;BMP280;44690;48.154;17.102;2022-10-31T03:53:19;100162.94;;;11.28
58909;BMP280;44690;48.154;17.102;2022-10-31T03:55:10;100163.69;;;11.29
58909;BMP280;44690;48.154;17.102;2022-10-31T03:57:02;100166.41;;;11.29
58909;BMP280;44690;48.154;17.102;2022-10-31T03:59:01;100161.69;;;11.30
58909;BMP280;44690;48.154;17.102;2022-10-31T04:00:50;100170.41;;;11.28
58909;BMP280;44690;48.154;17.102;2022-10-31T04:02:40;100160.81;;;11.27
58909;BMP280;44690;48.154;17.102;2022-10-31T04:04:29;100168.22;;;11.26
58909;BMP280;44690;48.154;17.102;2022-10-31T04:06:16;100167.50;;;11.26
58909;BMP280;44690;48.154;17.102;2022-10-31T04:08:07;100162.59;;;11.24
58909;BMP280;44690;48.154;17.102;2022-10-31T04:09:55;100171.31;;;11.23
58909;BMP280;44690;48.154;17.102;2022-10-31T04:11:45;100163.88;;;11.23
58909;BMP280;44690;48.154;17.102;2022-10-31T04:13:54;100171.31;;;11.23
58909;BMP280;44690;48.154;17.102;2022-10-31T04:15:42;100168.03;;;11.24
58909;BMP280;44690;48.154;17.102;2022-10-31T04:17:31;100167.31;;;11.24
58909;BMP280;44690;48.154;17.102;2022-10-31T04:19:19;100163.34;;;11.25
58909;BMP280;44690;48.154;17.102;2022-10-31T04:21:07;100174.75;;;11.23
58909;BMP280;44690;48.154;17.102;2022-10-31T04:22:54;100173.09;;;11.20
58909;BMP280;44690;48.154;17.102;2022-10-31T04:24:41;100175.66;;;11.18
58909;BMP280;44690;48.154;17.102;2022-10-31T04:26:32;100173.50;;;11.17
58909;BMP280;44690;48.154;17.102;2022-10-31T04:28:20;100174.75;;;11.16
58909;BMP280;44690;48.154;17.102;2022-10-31T04:30:07;100170.78;;;11.17
58909;BMP280;44690;48.154;17.102;2022-10-31T04:31:58;100170.78;;;11.17
58909;BMP280;44690;48.154;17.102;2022-10-31T04:33:45;100171.31;;;11.15
58909;BMP280;44690;48.154;17.102;2022-10-31T04:35:32;100160.28;;;11.13
58909;BMP280;44690;48.154;17.102;2022-10-31T04:37:19;100175.16;;;11.12
58909;BMP280;44690;48.154;17.102;2022-10-31T04:39:07;100167.38;;;11.09
58909;BMP280;44690;48.154;17.102;2022-10-31T04:41:01;100174.25;;;11.10
58909;BMP280;44690;48.154;17.102;2022-10-31T04:43:06;100174.44;;;11.04
58909;BMP280;44690;48.154;17.102;2022-10-31T04:44:53;100176.44;;;11.04
58909;BMP280;44690;48.154;17.102;2022-10-31T04:46:40;100174.78;;;11.01
58909;BMP280;44690;48.154;17.102;2022-10-31T04:48:28;100173.34;;;11.00
58909;BMP280;44690;48.154;17.102;2022-10-31T04:50:15;100175.88;;;10.97
58909;BMP280;44690;48.154;17.102;2022-10-31T04:52:03;100181.69;;;10.94
58909;BMP280;44690;48.154;17.102;2022-10-31T04:53:50;100171.38;;;10.92
58909;BMP280;44690;48.154;17.102;2022-10-31T04:55:57;100177.88;;;10.89
58909;BMP280;44690;48.154;17.102;2022-10-31T04:57:46;100177.88;;;10.89
58909;BMP280;44690;48.154;17.102;2022-10-31T04:59:34;100180.06;;;10.91
58909;BMP280;44690;48.154;17.102;2022-10-31T05:01:22;100185.50;;;10.91
58909;BMP280;44690;48.154;17.102;2022-10-31T05:03:09;100177.34;;;10.91
58909;BMP280;44690;48.154;17.102;2022-10-31T05:04:56;100183.16;;;10.87
58909;BMP280;44690;48.154;17.102;2022-10-31T05:06:43;100187.66;;;10.85
58909;BMP280;44690;48.154;17.102;2022-10-31T05:08:30;100188.22;;;10.83
58909;BMP280;44690;48.154;17.102;2022-10-31T05:10:19;100188.72;;;10.82
58909;BMP280;44690;48.154;17.102;2022-10-31T05:12:08;100196.88;;;10.82
58909;BMP280;44690;48.154;17.102;2022-10-31T05:14:33;100191.81;;;10.86
58909;BMP280;44690;48.154;17.102;2022-10-31T05:16:40;100198.31;;;10.90
58909;BMP280;44690;48.154;17.102;2022-10-31T05:18:53;100192.75;;;10.96
58909;BMP280;44690;48.154;17.102;2022-10-31T05:20:46;100189.66;;;11.00
58909;BMP280;44690;48.154;17.102;2022-10-31T05:22:59;100193.25;;;11.02
58909;BMP280;44690;48.154;17.102;2022-10-31T05:24:46;100184.00;;;11.05
58909;BMP280;44690;48.154;17.102;2022-10-31T05:26:33;100189.81;;;11.09
58909;BMP280;44690;48.154;17.102;2022-10-31T05:28:20;100190.00;;;11.11
58909;BMP280;44690;48.154;17.102;2022-10-31T05:30:07;100191.47;;;11.12
58909;BMP280;44690;48.154;17.102;2022-10-31T05:31:54;100193.41;;;11.12
58909;BMP280;44690;48.154;17.102;2022-10-31T05:34:01;100192.16;;;11.13
58909;BMP280;44690;48.154;17.102;2022-10-31T05:36:07;100195.25;;;11.09
58909;BMP280;44690;48.154;17.102;2022-10-31T05:38:17;100198.69;;;11.10
58909;BMP280;44690;48.154;17.102;2022-10-31T05:40:05;100201.94;;;11.08
58909;BMP280;44690;48.154;17.102;2022-10-31T05:41:54;100204.84;;;11.10
58909;BMP280;44690;48.154;17.102;2022-10-31T05:43:45;100203.56;;;11.11
58909;BMP280;44690;48.154;17.102;2022-10-31T05:45:33;100211.88;;;11.13
58909;BMP280;44690;48.154;17.102;2022-10-31T05:47:22;100202.47;;;11.14
58909;BMP280;44690;48.154;17.102;2022-10-31T05:49:15;100208.09;;;11.16
58909;BMP280;44690;48.154;17.102;2022-10-31T05:51:26;100209.53;;;11.17
58909;BMP280;44690;48.154;17.102;2022-10-31T05:53:13;100206.09;;;11.17
58909;BMP280;44690;48.154;17.102;2022-10-31T05:55:00;100214.44;;;11.19
58909;BMP280;44690;48.154;17.102;2022-10-31T05:56:48;100213.16;;;11.20
58909;BMP280;44690;48.154;17.102;2022-10-31T05:58:35;100209.88;;;11.21
58909;BMP280;44690;48.154;17.102;2022-10-31T06:00:25;100212.78;;;11.23
58909;BMP280;44690;48.154;17.102;2022-10-31T06:02:12;100215.69;;;11.25
58909;BMP280;44690;48.154;17.102;2022-10-31T06:04:21;100206.81;;;11.25
58909;BMP280;44690;48.154;17.102;2022-10-31T06:06:08;100216.03;;;11.22
58909;BMP280;44690;48.154;17.102;2022-10-31T06:07:58;100212.59;;;11.21
58909;BMP280;44690;48.154;17.102;2022-10-31T06:09:46;100221.66;;;11.24
58909;BMP280;44690;48.154;17.102;2022-10-31T06:11:34;100218.94;;;11.24
58909;BMP280;44690;48.154;17.102;2022-10-31T06:13:21;100222.91;;;11.23
58909;BMP280;44690;48.154;17.102;2022-10-31T06:15:16;100222.03;;;11.13
58909;BMP280;44690;48.154;17.102;2022-10-31T06:17:09;100219.31;;;11.05
58909;BMP280;44690;48.154;17.102;2022-10-31T06:19:08;100216.81;;;11.00
58909;BMP280;44690;48.154;17.102;2022-10-31T06:20:55;100226.59;;;10.95
58909;BMP280;44690;48.154;17.102;2022-10-31T06:22:46;100220.03;;;10.90
58909;BMP280;44690;48.154;17.102;2022-10-31T06:24:37;100224.75;;;10.90
58909;BMP280;44690;48.154;17.102;2022-10-31T06:26:52;100223.88;;;10.87
58909;BMP280;44690;48.154;17.102;2022-10-31T06:28:43;100232.16;;;10.89
58909;BMP280;44690;48.154;17.102;2022-10-31T06:30:49;100228.03;;;10.88
58909;BMP280;44690;48.154;17.102;2022-10-31T06:32:40;100231.47;;;10.89
58909;BMP280;44690;48.154;17.102;2022-10-31T06:34:32;100227.66;;;10.92
58909;BMP280;44690;48.154;17.102;2022-10-31T06:36:22;100230.56;;;10.94
58909;BMP280;44690;48.154;17.102;2022-10-31T06:38:15;100239.25;;;10.92
58909;BMP280;44690;48.154;17.102;2022-10-31T06:40:06;100229.66;;;10.91
58909;BMP280;44690;48.154;17.102;2022-10-31T06:42:14;100236.34;;;10.90
58909;BMP280;44690;48.154;17.102;2022-10-31T06:44:06;100242.50;;;10.91
58909;BMP280;44690;48.154;17.102;2022-10-31T06:46:13;100235.59;;;10.90
58909;BMP280;44690;48.154;17.102;2022-10-31T06:48:11;100238.19;;;10.88
58909;BMP280;44690;48.154;17.102;2022-10-31T06:50:26;100229.09;;;10.85
58909;BMP280;44690;48.154;17.102;2022-10-31T06:52:17;100243.94;;;10.84
58909;BMP280;44690;48.154;17.102;2022-10-31T06:54:07;100245.03;;;10.81
58909;BMP280;44690;48.154;17.102;2022-10-31T06:55:58;100247.94;;;10.83
58909;BMP280;44690;48.154;17.102;2022-10-31T06:57:49;100257.53;;;10.84
58909;BMP280;44690;48.154;17.102;2022-10-31T06:59:40;100250.47;;;10.89
58909;BMP280;44690;48.154;17.102;2022-10-31T07:01:34;100254.81;;;10.92
58909;BMP280;44690;48.154;17.102;2022-10-31T07:03:25;100258.63;;;10.89
58909;BMP280;44690;48.154;17.102;2022-10-31T07:05:15;100258.63;;;10.89
58909;BMP280;44690;48.154;17.102;2022-10-31T07:07:06;100263.34;;;10.88
58909;BMP280;44690;48.154;17.102;2022-10-31T07:08:57;100266.41;;;10.92
58909;BMP280;44690;48.154;17.102;2022-10-31T07:10:53;100264.63;;;10.95
58909;BMP280;44690;48.154;17.102;2022-10-31T07:12:45;100265.69;;;11.00
58909;BMP280;44690;48.154;17.102;2022-10-31T07:14:35;100271.50;;;11.04
58909;BMP280;44690;48.154;17.102;2022-10-31T07:16:26;100268.94;;;11.06
58909;BMP280;44690;48.154;17.102;2022-10-31T07:18:16;100270.38;;;11.07
58909;BMP280;44690;48.154;17.102;2022-10-31T07:20:04;100272.38;;;11.06
58909;BMP280;44690;48.154;17.102;2022-10-31T07:21:54;100272.22;;;11.04
58909;BMP280;44690;48.154;17.102;2022-10-31T07:23:47;100268.94;;;11.06
58909;BMP280;44690;48.154;17.102;2022-10-31T07:26:09;100266.59;;;11.02
58909;BMP280;44690;48.154;17.102;2022-10-31T07:28:06;100266.41;;;11.00
58909;BMP280;44690;48.154;17.102;2022-10-31T07:29:56;100275.47;;;11.03
58909;BMP280;44690;48.154;17.102;2022-10-31T07:31:49;100272.22;;;11.04
58909;BMP280;44690;48.154;17.102;2022-10-31T07:33:47;100275.81;;;11.07
58909;BMP280;44690;48.154;17.102;2022-10-31T07:36:06;100267.09;;;11.16
58909;BMP280;44690;48.154;17.102;2022-10-31T07:37:57;100268.03;;;11.18
58909;BMP280;44690;48.154;17.102;2022-10-31T07:39:48;100266.94;;;11.21
58909;BMP280;44690;48.154;17.102;2022-10-31T07:41:39;100271.66;;;11.21
58909;BMP280;44690;48.154;17.102;2022-10-31T07:43:32;100271.47;;;11.19
58909;BMP280;44690;48.154;17.102;2022-10-31T07:45:40;100269.81;;;11.16
58909;BMP280;44690;48.154;17.102;2022-10-31T07:47:50;100267.50;;;11.12
58909;BMP280;44690;48.154;17.102;2022-10-31T07:49:59;100261.88;;;11.10
58909;BMP280;44690;48.154;17.102;2022-10-31T07:52:08;100260.78;;;11.13
58909;BMP280;44690;48.154;17.102;2022-10-31T07:54:18;100260.59;;;11.19
58909;BMP280;44690;48.154;17.102;2022-10-31T07:56:08;100258.78;;;11.21
58909;BMP280;44690;48.154;17.102;2022-10-31T07:57:59;100266.22;;;11.21
58909;BMP280;44690;48.154;17.102;2022-10-31T07:59:51;100268.59;;;11.17
58909;BMP280;44690;48.154;17.102;2022-10-31T08:01:41;100266.59;;;11.17
58909;BMP280;44690;48.154;17.102;2022-10-31T08:03:51;100273.09;;;11.22
58909;BMP280;44690;48.154;17.102;2022-10-31T08:06:02;100273.09;;;11.30
58909;BMP280;44690;48.154;17.102;2022-10-31T08:08:11;100273.09;;;11.30
58909;BMP280;44690;48.154;17.102;2022-10-31T08:10:02;100263.47;;;11.36
58909;BMP280;44690;48.154;17.102;2022-10-31T08:11:54;100273.78;;;11.45
58909;BMP280;44690;48.154;17.102;2022-10-31T08:13:46;100276.47;;;11.53
58909;BMP280;44690;48.154;17.102;2022-10-31T08:15:37;100274.88;;;11.50
58909;BMP280;44690;48.154;17.102;2022-10-31T08:17:34;100270.19;;;11.43
58909;BMP280;44690;48.154;17.102;2022-10-31T08:19:24;100263.66;;;11.38
58909;BMP280;44690;48.154;17.102;2022-10-31T08:21:15;100274.31;;;11.44
58909;BMP280;44690;48.154;17.102;2022-10-31T08:23:08;100272.69;;;11.48
58909;BMP280;44690;48.154;17.102;2022-10-31T08:24:59;100271.97;;;11.48
58909;BMP280;44690;48.154;17.102;2022-10-31T08:26:52;100275.63;;;11.50
58909;BMP280;44690;48.154;17.102;2022-10-31T08:28:43;100267.97;;;11.57
58909;BMP280;44690;48.154;17.102;2022-10-31T08:30:36;100275.03;;;11.60
58909;BMP280;44690;48.154;17.102;2022-10-31T08:32:47;100266.69;;;11.65
58909;BMP280;44690;48.154;17.102;2022-10-31T08:35:03;100270.66;;;11.72
58909;BMP280;44690;48.154;17.102;2022-10-31T08:37:14;100262.78;;;11.83
58909;BMP280;44690;48.154;17.102;2022-10-31T08:39:14;100266.75;;;11.90
58909;BMP280;44690;48.154;17.102;2022-10-31T08:41:05;100274.72;;;11.96
58909;BMP280;44690;48.154;17.102;2022-10-31T08:42:59;100264.19;;;12.00
58909;BMP280;44690;48.154;17.102;2022-10-31T08:44:50;100273.25;;;12.02
58909;BMP280;44690;48.154;17.102;2022-10-31T08:46:43;100264.91;;;12.00
58909;BMP280;44690;48.154;17.102;2022-10-31T08:48:34;100268.88;;;12.07
58909;BMP280;44690;48.154;17.102;2022-10-31T08:50:26;100266.84;;;12.15
58909;BMP280;44690;48.154;17.102;2022-10-31T08:52:18;100267.72;;;12.18
58909;BMP280;44690;48.154;17.102;2022-10-31T08:54:32;100260.81;;;12.24
58909;BMP280;44690;48.154;17.102;2022-10-31T08:56:55;100264.75;;;12.31
58909;BMP280;44690;48.154;17.102;2022-10-31T08:59:00;100270.72;;;12.37
58909;BMP280;44690;48.154;17.102;2022-10-31T09:01:06;100269.63;;;12.32
58909;BMP280;44690;48.154;17.102;2022-10-31T09:02:58;100270.41;;;12.25
58909;BMP280;44690;48.154;17.102;2022-10-31T09:04:52;100259.91;;;12.22
58909;BMP280;44690;48.154;17.102;2022-10-31T09:06:43;100268.06;;;12.22
58909;BMP280;44690;48.154;17.102;2022-10-31T09:08:53;100261.22;;;12.13
58909;BMP280;44690;48.154;17.102;2022-10-31T09:10:47;100270.31;;;12.08
58909;BMP280;44690;48.154;17.102;2022-10-31T09:12:42;100266.53;;;12.03
58909;BMP280;44690;48.154;17.102;2022-10-31T09:14:58;100264.31;;;12.09
58909;BMP280;44690;48.154;17.102;2022-10-31T09:17:01;100268.53;;;12.03
58909;BMP280;44690;48.154;17.102;2022-10-31T09:19:09;100267.47;;;11.98
58909;BMP280;44690;48.154;17.102;2022-10-31T09:21:01;100278.34;;;11.98
58909;BMP280;44690;48.154;17.102;2022-10-31T09:22:56;100275.28;;;11.94
58909;BMP280;44690;48.154;17.102;2022-10-31T09:24:47;100274.19;;;11.90
58909;BMP280;44690;48.154;17.102;2022-10-31T09:26:37;100270.59;;;11.87
58909;BMP280;44690;48.154;17.102;2022-10-31T09:28:37;100277.31;;;11.86
58909;BMP280;44690;48.154;17.102;2022-10-31T09:30:32;100274.59;;;11.86
58909;BMP280;44690;48.154;17.102;2022-10-31T09:32:23;100275.81;;;11.93
58909;BMP280;44690;48.154;17.102;2022-10-31T09:34:13;100278.69;;;12.02
58909;BMP280;44690;48.154;17.102;2022-10-31T09:36:21;100280.84;;;12.04
58909;BMP280;44690;48.154;17.102;2022-10-31T09:38:13;100269.25;;;11.96
58909;BMP280;44690;48.154;17.102;2022-10-31T09:40:07;100275.44;;;11.96
58909;BMP280;44690;48.154;17.102;2022-10-31T09:42:03;100279.06;;;11.99
58909;BMP280;44690;48.154;17.102;2022-10-31T09:46:00;100280.66;;;12.09
58909;BMP280;44690;48.154;17.102;2022-10-31T09:52:02;100274.28;;;12.15
58909;BMP280;44690;48.154;17.102;2022-10-31T09:53:56;100272.22;;;12.23
58909;BMP280;44690;48.154;17.102;2022-10-31T09:55:48;100275.81;;;12.33
58909;BMP280;44690;48.154;17.102;2022-10-31T09:57:39;100273.22;;;12.42
58909;BMP280;44690;48.154;17.102;2022-10-31T09:59:33;100275.88;;;12.50
58909;BMP280;44690;48.154;17.102;2022-10-31T10:03:42;100279.94;;;12.66
58909;BMP280;44690;48.154;17.102;2022-10-31T10:05:57;100273.56;;;12.71
58909;BMP280;44690;48.154;17.102;2022-10-31T10:08:15;100281.75;;;12.71
58909;BMP280;44690;48.154;17.102;2022-10-31T10:11:28;100277.22;;;12.66
58909;BMP280;44690;48.154;17.102;2022-10-31T10:13:24;100277.06;;;12.64
58909;BMP280;44690;48.154;17.102;2022-10-31T10:19:24;100278.09;;;12.69
58909;BMP280;44690;48.154;17.102;2022-10-31T10:21:22;100268.59;;;12.78
58909;BMP280;44690;48.154;17.102;2022-10-31T10:29:27;100267.81;;;12.85
58909;BMP280;44690;48.154;17.102;2022-10-31T10:31:21;100263.00;;;12.76
58909;BMP280;44690;48.154;17.102;2022-10-31T10:33:23;100267.53;;;12.73
58909;BMP280;44690;48.154;17.102;2022-10-31T10:35:17;100257.72;;;12.78
58909;BMP280;44690;48.154;17.102;2022-10-31T10:37:14;100262.94;;;12.83
58909;BMP280;44690;48.154;17.102;2022-10-31T10:39:16;100264.88;;;12.90
58909;BMP280;44690;48.154;17.102;2022-10-31T10:41:18;100260.31;;;12.93
58909;BMP280;44690;48.154;17.102;2022-10-31T10:45:18;100259.69;;;13.02
58909;BMP280;44690;48.154;17.102;2022-10-31T10:47:30;100253.97;;;12.90
58909;BMP280;44690;48.154;17.102;2022-10-31T10:58:00;100244.44;;;12.57